Accueil
METAR-TAF:

METAR-TAF

Aéroports :

Malekula, Vanuatu

latitude: 16-27-26S, longitude: 167-49-42E, altitude: 2 m

Observation

Le bulletin a été fait il y a 4 heures et 45 minutes, à 09:00 UTC
Vent 5 kt de sud/sud-ouest
Température 23°C
Humidité 69%
Pression 1014 hPa
Visibilité 10 km ou plus
Quelques nuages à une hauteur de 2500 ft

METAR: NVSL 210900Z 20005KT 9999 FEW025 23/17 Q1014 RMK NIL

Heure: 00:45 (13:45 UTC)

Prévision

Le bulletin a été fait il y a 3 heures et 45 minutes, à 10:00 UTC
Prévision valable du 21 à 12 UTC au 22 à 12 UTC
Vent 5 kt de sud/sud-ouest
Visibilité 10 km ou plus
Nuages fragmentés à une hauteur de 4000 ft
Evoluant progressivement
du 21 à 12 UTC au 21 à 15 UTC
Vent 2 kt de direction variable

TAF: NVSL 211000Z 2112/2212 20005KT 9999 BKN040 BECMG 2112/2115 VRB02KT

Observations et prévisions météorologiques de plus de 4000 aéroports (messages METAR et TAF).

Les stations disponibles sont représentées par des disques jaunes et rouges sur la carte.

Passer la souris dessus pour voir le nom de la station.

Cliquer dessus pour voir les observations et prévisions météorologiques.

Pour changer de carte: cliquez sur les boutons verts avec une croix noire pour zoomer, sur le bouton vert avec un tiret pour effectuer un zoom arrière, ou sur les flèches vertes pour les cartes adjacentes.


METAR-TAF: